Date,TemperatureHighF,TemperatureAvgF,TemperatureLowF,DewpointHighF,DewpointAvgF,DewpointLowF,HumidityHigh,HumidityAvg,HumidityLow,PressureMaxIn,PressureMinIn,WindSpeedMaxMPH,WindSpeedAvgMPH,GustSpeedMaxMPH,PrecipitationSumIn
2013-1-1,53,42,31,38,33,26,97,73,36,30.31,30.22,5,0,5,0.00
2013-1-2,51,41,31,41,36,30,97,84,62,30.28,30.21,22,1,22,0.00
2013-1-3,57,40,29,40,34,28,98,81,45,30.25,30.13,5,0,5,0.01
2013-1-4,56,41,30,42,36,29,97,84,52,30.27,30.17,5,0,5,0.00
2013-1-5,58,44,33,45,38,33,98,83,50,30.30,30.17,6,0,6,0.00
2013-1-6,56,48,36,49,44,34,98,90,71,30.27,30.06,15,1,15,0.09
2013-1-7,50,44,36,48,43,35,98,95,85,30.20,30.06,10,1,10,0.08
2013-1-8,58,46,35,50,43,34,99,91,72,30.27,30.15,6,0,6,0.01
2013-1-9,62,48,39,51,44,38,99,87,60,30.24,30.12,5,0,5,0.00
2013-1-10,56,46,38,50,43,36,99,89,77,30.14,30.01,13,1,13,0.01
2013-1-11,49,43,35,40,37,32,94,78,63,30.21,30.09,12,2,12,0.00
2013-1-12,52,42,32,41,36,30,95,81,61,30.27,30.13,12,1,12,0.00
2013-1-13,49,40,30,38,28,20,98,69,32,30.27,30.14,8,0,8,0.00
2013-1-14,50,38,27,32,27,19,93,68,31,30.29,30.17,9,1,9,0.00
2013-1-15,51,38,28,29,24,18,86,60,30,30.44,30.29,7,0,7,0.00
2013-1-16,55,40,28,34,30,26,92,70,36,30.48,30.40,7,0,7,0.00
2013-1-17,57,41,29,40,33,27,94,75,39,30.44,30.25,4,0,4,0.00
2013-1-18,62,44,30,41,35,28,96,75,42,30.27,30.14,5,0,5,0.00
2013-1-19,65,46,32,43,37,30,95,74,38,30.23,30.12,4,0,4,0.00
2013-1-20,64,47,32,43,38,30,95,75,44,30.26,30.15,5,0,5,0.00
2013-1-21,65,46,32,40,36,30,96,73,34,30.24,30.12,6,0,6,0.00
2013-1-22,64,45,30,44,37,29,95,76,36,30.18,30.08,6,0,6,0.00
2013-1-23,62,47,33,45,40,32,96,77,42,30.10,30.00,4,0,5,0.00
2013-1-24,54,50,46,50,47,42,98,90,79,30.09,29.94,8,0,8,0.05
2013-1-25,56,53,50,53,51,49,99,95,87,30.19,30.07,6,0,6,0.01
2013-1-26,64,56,48,58,53,47,100,92,75,30.19,30.03,7,1,7,0.03
2013-1-27,59,50,42,51,44,39,99,81,51,30.10,30.01,17,2,17,0.00
2013-1-28,56,48,41,42,40,31,91,74,40,30.19,30.09,11,2,11,0.00
2013-1-29,58,48,39,44,42,36,93,79,55,30.31,30.18,14,2,14,0.00
2013-1-30,59,48,40,46,42,38,95,81,56,30.37,30.27,10,1,10,0.00
2013-1-31,68,51,38,46,42,37,97,74,42,30.34,30.25,7,0,7,0.00
2013-2-1,65,49,36,50,42,35,96,81,51,30.30,30.17,6,0,7,0.00
2013-2-2,65,51,37,50,44,36,97,78,53,30.20,30.11,4,0,4,0.00
2013-2-3,62,62,62,49,49,49,61,61,61,30.12,30.12,1,1,1,0.00
2013-2-4,62,51,39,49,44,38,96,80,61,30.18,30.12,9,0,9,0.00
2013-2-5,55,47,38,50,45,37,98,94,82,30.20,30.08,9,1,9,0.00
2013-2-6,56,49,39,48,44,38,98,85,72,30.17,30.09,14,2,14,0.00
2013-2-7,58,46,34,46,40,34,98,83,59,30.20,30.13,12,1,12,0.01
2013-2-8,57,45,36,48,40,34,97,84,49,30.17,29.98,14,1,15,0.07
2013-2-9,54,44,35,44,39,33,98,83,59,30.02,29.95,13,1,13,0.03
2013-2-10,59,44,31,40,33,26,96,69,33,30.10,30.01,7,0,7,0.00
2013-2-11,61,45,31,44,36,29,95,72,41,30.13,30.02,8,0,8,0.00
2013-2-12,64,50,34,46,35,28,93,65,27,30.26,30.09,8,1,8,0.00
2013-2-13,56,40,34,47,37,33,95,89,67,30.36,30.26,2,0,2,0.00
2013-2-16,73,58,44,49,45,41,89,67,34,30.23,30.19,6,0,6,0.00
2013-2-17,69,53,41,51,46,39,96,79,48,30.22,30.05,6,0,6,0.00
2013-2-18,64,52,41,49,46,40,99,80,53,30.07,29.97,9,1,9,0.00
2013-2-19,48,48,46,41,40,38,78,75,70,30.01,29.98,7,1,7,0.00
2013-2-20,50,45,41,45,40,36,95,85,75,29.98,29.77,16,2,16,0.24
2013-2-21,47,43,34,40,39,32,93,86,77,30.09,29.87,4,0,4,0.00
2013-2-22,60,48,37,42,37,33,96,70,38,30.19,30.06,11,2,11,0.00
2013-2-23,62,49,34,47,40,32,93,74,39,30.27,30.17,11,1,11,0.00
2013-2-24,59,50,44,47,40,36,91,69,44,30.26,30.16,18,3,18,0.00
2013-2-25,63,50,38,43,33,25,87,57,25,30.27,30.17,6,1,7,0.00
2013-2-26,62,48,35,46,40,33,93,75,51,30.29,30.17,13,1,13,0.00
2013-2-27,68,50,36,42,35,26,96,62,22,30.23,30.13,10,1,10,0.00
2013-2-28,68,52,36,48,41,33,95,72,30,30.39,30.22,9,1,9,0.00
2013-3-1,68,54,42,54,49,40,97,84,59,30.46,30.38,12,1,12,0.00
2013-3-2,73,56,47,56,50,47,100,83,49,30.43,30.23,8,1,8,0.00
2013-3-3,68,57,47,55,51,46,95,81,59,30.23,30.06,8,0,8,0.00
2013-3-4,64,55,51,53,51,49,94,86,67,30.11,30.07,8,1,8,0.00
2013-3-9,61,52,43,48,43,40,91,72,49,30.12,29.90,19,4,19,0.09
2013-3-10,68,53,40,48,42,38,95,70,37,30.32,30.10,12,1,12,0.00
2013-3-11,71,53,38,49,42,36,95,72,29,30.35,30.25,8,1,8,0.00
2013-3-12,73,54,40,50,45,38,95,76,36,30.26,30.11,8,1,8,0.00
2013-3-13,72,56,45,54,50,43,96,81,48,30.17,30.06,7,1,7,0.00
2013-3-14,78,59,44,57,51,43,97,79,45,30.17,30.05,9,1,9,0.00
2013-3-15,70,56,46,55,49,41,97,79,39,30.17,30.09,9,0,9,0.00
2013-3-16,70,55,43,54,48,42,96,81,40,30.13,30.05,9,0,9,0.00
2013-3-17,70,57,47,54,48,39,96,74,37,30.13,30.04,10,1,10,0.00
2013-3-18,67,54,42,50,43,39,93,70,38,30.16,30.05,6,1,9,0.00
2013-3-19,63,53,41,50,45,40,95,77,55,30.14,30.03,16,1,16,0.00
2013-3-20,68,54,45,50,46,36,97,76,38,30.15,30.06,16,1,16,0.07
2013-3-21,68,57,49,56,52,45,98,83,59,30.15,30.07,15,2,16,0.04
2013-3-22,66,53,43,47,43,40,88,71,44,30.14,30.01,11,2,11,0.00
2013-3-23,69,54,42,43,35,25,93,54,21,30.12,30.02,12,2,13,0.00
2013-3-24,69,53,41,46,38,24,91,63,24,30.15,30.04,8,0,8,0.00
2013-3-25,69,53,41,52,45,40,96,77,46,30.10,29.97,7,1,10,0.00
2013-3-26,59,50,42,48,44,40,96,81,63,30.04,29.96,14,1,14,0.00
2013-3-27,64,54,45,50,46,42,92,77,59,30.02,29.93,9,1,9,0.00
2013-3-28,66,57,47,56,51,45,93,80,63,30.02,29.95,15,1,15,0.00
2013-3-29,70,60,51,57,54,49,98,83,62,30.09,30.01,11,1,11,0.00
2013-3-30,76,65,50,57,54,49,97,71,49,30.09,29.99,7,1,12,0.00
2013-3-31,71,60,54,58,55,52,97,83,61,30.07,29.96,10,1,10,0.09
2013-4-1,69,61,53,55,52,49,97,75,51,30.06,29.99,14,2,15,0.10
2013-4-2,68,57,48,56,52,46,98,85,59,30.18,30.05,15,1,15,0.12
2013-4-3,68,56,45,56,51,44,98,85,63,30.19,30.08,9,1,10,0.00
2013-4-4,78,59,51,59,52,49,94,80,42,30.14,29.97,11,1,11,0.02
2013-4-5,70,59,52,57,54,51,97,84,62,30.14,30.00,17,3,17,0.18
2013-4-6,67,59,52,55,52,49,92,78,59,30.19,30.12,13,2,13,0.00
2013-4-7,66,57,49,56,51,48,94,82,64,30.20,30.13,11,1,11,0.00
2013-4-8,67,56,50,56,50,42,94,78,57,30.14,29.83,24,4,25,0.02
2013-4-9,66,55,48,44,41,32,78,60,35,30.04,29.85,27,5,29,0.01
2013-4-10,75,63,52,45,41,35,74,48,27,30.09,30.02,19,3,19,0.00
2013-4-11,86,66,50,53,49,43,88,57,28,30.17,30.05,20,2,20,0.00
2013-4-12,73,58,47,53,47,44,91,69,36,30.05,29.85,11,1,12,0.00
2013-4-13,72,57,45,55,48,43,94,75,47,29.93,29.83,10,1,10,0.00
2013-4-14,70,55,44,54,44,40,93,70,42,29.92,29.85,17,2,17,0.00
2013-4-15,70,56,41,48,43,38,91,66,33,29.95,29.87,21,3,21,0.00
2013-4-16,59,50,42,43,39,34,88,67,45,30.01,29.89,29,4,29,0.00
2013-4-17,68,54,39,41,36,27,87,54,23,30.17,30.01,18,2,18,0.00
2013-4-18,70,57,45,38,34,27,74,46,21,30.27,30.17,21,2,21,0.00
2013-4-19,77,60,42,49,41,33,87,57,22,30.27,30.17,9,1,9,0.00
2013-4-20,79,62,46,56,49,43,90,65,33,30.24,30.08,14,1,14,0.00
2013-4-21,80,62,48,53,48,43,91,65,28,30.11,29.98,9,1,9,0.00
2013-4-22,85,66,48,55,49,40,94,60,22,30.04,29.92,10,1,10,0.00
2013-4-23,90,69,52,57,48,38,85,54,17,29.96,29.83,10,1,10,0.00
2013-4-24,83,62,49,53,44,26,91,59,14,29.93,29.85,11,1,11,0.00
2013-4-25,68,58,49,54,51,46,94,78,60,29.96,29.84,9,1,9,0.00
2013-4-26,65,57,49,55,50,47,96,78,63,30.15,29.96,13,2,13,0.00
2013-4-27,67,56,48,54,49,45,92,79,62,30.23,30.15,10,1,10,0.00
2013-4-28,70,57,49,56,51,47,95,81,59,30.23,30.06,11,1,11,0.00
2013-4-29,81,64,52,58,54,50,92,71,45,30.06,29.86,10,1,10,0.00
2013-4-30,88,69,54,62,53,48,92,61,28,29.90,29.75,10,1,10,0.00
2013-5-1,83,67,51,56,49,39,91,58,23,29.88,29.78,11,1,11,0.00
2013-5-2,86,68,51,52,39,23,82,43,12,30.10,29.87,9,1,9,0.00
2013-5-3,92,71,52,56,44,28,82,46,12,30.14,30.03,10,1,10,0.00
2013-5-4,90,70,52,57,45,27,78,48,11,30.03,29.73,11,1,11,0.00
2013-5-5,86,66,53,60,52,46,85,63,26,29.74,29.54,16,1,16,0.00
2013-5-6,73,62,54,51,49,46,79,63,43,29.82,29.61,20,2,20,0.00
2013-5-7,71,62,52,55,51,49,88,67,47,29.96,29.81,10,1,10,0.00
2013-5-8,73,62,54,56,53,48,93,74,52,30.06,29.95,13,1,13,0.00
2013-5-9,67,58,52,56,51,49,93,80,58,30.16,30.06,12,2,12,0.00
2013-5-10,68,58,52,54,50,49,89,78,57,30.20,30.09,13,2,13,0.00
2013-5-11,66,58,53,56,53,49,93,82,70,30.19,30.11,11,1,11,0.00
2013-5-12,79,63,54,61,55,52,94,77,46,30.14,30.03,9,1,9,0.00
2013-5-13,78,64,52,62,56,49,96,75,50,30.15,30.03,10,1,10,0.00
2013-5-14,75,62,50,61,53,47,96,74,49,30.11,29.94,13,1,13,0.00
2013-5-15,78,62,52,57,49,44,91,65,38,30.04,29.94,12,2,12,0.00
2013-5-16,71,60,48,51,48,42,86,67,39,30.08,30.02,14,2,15,0.00
2013-5-17,71,60,51,57,51,47,88,74,47,30.05,29.98,15,2,15,0.00
2013-5-18,71,58,48,54,47,43,91,69,40,30.11,30.00,15,2,15,0.00
2013-5-19,74,61,46,55,49,43,91,66,39,30.15,30.08,13,2,13,0.00
2013-5-20,84,66,50,54,49,42,88,60,23,30.13,29.96,12,1,12,0.00
2013-5-21,90,68,51,61,47,31,93,58,13,30.00,29.91,13,1,13,0.00
2013-5-22,73,59,49,53,45,34,88,61,25,30.01,29.93,19,3,19,0.00
2013-5-23,67,55,47,43,38,29,82,57,26,30.03,29.94,17,3,17,0.00
2013-5-24,69,56,46,48,43,40,86,62,42,30.02,29.95,13,2,13,0.00
2013-5-25,73,56,44,51,45,41,91,69,36,30.01,29.96,19,2,19,0.00
2013-5-26,68,57,46,52,47,42,89,71,46,30.09,29.99,16,2,16,0.00
2013-5-27,73,61,52,56,52,49,88,72,48,30.15,30.07,15,3,15,0.00
2013-5-28,68,61,52,57,54,49,92,79,64,30.12,29.97,11,1,11,0.02
2013-5-29,72,62,55,60,54,49,93,75,54,30.00,29.92,15,2,15,0.00
2013-5-30,71,63,57,58,53,46,78,69,48,29.98,29.92,14,2,14,0.00
2013-5-31,76,62,48,55,48,40,89,61,33,30.00,29.95,15,2,15,0.00
2013-6-1,88,68,49,58,52,45,89,62,26,30.02,29.90,11,1,11,0.00
2013-6-2,86,68,54,60,55,51,92,66,35,29.92,29.76,9,1,9,0.00
2013-6-3,75,61,52,59,54,49,90,77,53,29.78,29.68,9,1,9,0.00
2013-6-4,74,62,51,58,54,48,93,75,55,29.86,29.73,12,1,12,0.00
2013-6-5,70,62,57,58,55,53,89,78,62,29.97,29.86,10,1,10,0.00
2013-6-6,68,60,56,56,54,52,89,80,65,30.00,29.91,13,1,13,0.00
2013-6-7,73,62,56,59,55,53,91,80,60,29.95,29.86,10,1,10,0.00
2013-6-8,85,68,57,63,59,55,91,73,47,29.87,29.72,8,1,8,0.00
2013-6-9,82,68,58,64,59,55,92,75,49,29.80,29.70,9,1,9,0.00
2013-6-10,80,66,58,61,57,51,93,73,52,29.87,29.80,15,1,15,0.00
2013-6-11,77,65,57,57,54,50,88,69,48,29.94,29.84,14,2,14,0.00
2013-6-12,72,62,52,59,54,50,93,76,61,29.99,29.90,10,1,10,0.00
2013-6-13,78,62,50,57,49,41,95,65,32,30.03,29.91,14,2,14,0.00
2013-6-14,81,64,49,54,49,41,89,63,25,30.09,29.94,11,1,11,0.00
2013-6-15,88,66,52,59,51,37,92,64,19,29.95,29.82,11,1,11,0.00
2013-6-16,70,60,51,56,52,49,92,77,54,30.02,29.85,12,1,12,0.00
2013-6-17,80,63,50,60,52,48,94,70,42,30.10,30.01,15,2,15,0.00
2013-6-18,75,63,52,58,54,49,92,75,55,30.11,30.03,15,2,15,0.00
2013-6-19,69,61,53,53,50,48,91,70,50,30.05,30.01,21,3,21,0.00
2013-6-20,74,62,50,53,48,44,85,63,43,30.06,29.99,14,2,14,0.00
2013-6-21,66,55,49,53,48,43,85,78,62,30.00,29.98,8,0,8,0.00
2013-6-24,71,66,61,62,60,58,92,82,70,29.89,29.79,12,2,12,0.00
2013-6-25,65,62,59,62,60,58,96,92,82,29.90,29.79,8,0,8,0.04
2013-6-26,77,69,62,66,62,58,95,80,67,29.97,29.88,12,1,12,0.01
2013-6-27,83,71,61,68,64,59,95,78,59,30.05,29.97,11,1,11,0.00
2013-6-28,89,72,59,66,60,56,97,70,35,30.07,30.00,9,1,10,0.00
2013-6-29,90,74,60,67,62,58,93,69,41,30.00,29.89,10,1,10,0.00
2013-6-30,94,75,60,66,61,55,91,65,28,29.91,29.79,10,1,10,0.00
2013-7-1,84,71,60,64,60,56,93,71,46,29.85,29.76,7,1,8,0.00
2013-7-2,88,72,60,66,61,58,94,72,44,29.84,29.80,8,1,8,0.00
2013-7-3,86,70,62,67,62,59,93,77,51,29.92,29.83,10,1,10,0.00
2013-7-4,87,71,61,67,62,58,91,75,45,29.89,29.74,10,1,10,0.00
2013-7-5,88,73,59,67,62,51,89,69,45,29.77,29.67,7,1,7,0.00
2013-7-6,77,64,55,58,54,51,87,71,49,29.81,29.71,13,2,13,0.00
2013-7-7,76,64,54,59,55,51,90,75,54,29.80,29.72,11,1,11,0.00
2013-7-8,76,64,57,60,57,52,90,77,57,29.87,29.77,10,1,10,0.00
2013-7-9,76,65,58,61,58,54,94,78,56,29.98,29.87,9,1,9,0.00
2013-7-10,83,67,57,64,59,54,93,76,46,30.02,29.91,10,1,10,0.00
2013-7-11,61,59,58,57,55,54,92,89,86,29.98,29.96,4,0,4,0.00
2013-7-16,71,63,58,59,55,53,85,75,61,29.91,29.82,9,2,10,0.00
2013-7-17,71,63,58,58,55,52,86,75,58,30.04,29.88,13,2,13,0.00
2013-7-18,72,62,55,59,56,52,91,79,63,30.10,30.03,10,1,10,0.00
2013-7-19,77,64,56,63,57,53,93,80,58,30.06,29.92,9,1,9,0.00
2013-7-20,77,64,57,62,57,54,92,80,57,29.94,29.82,8,1,8,0.00
2013-7-21,79,64,58,61,57,55,91,79,54,29.85,29.73,9,1,9,0.00
2013-7-22,75,64,58,61,58,55,93,80,61,29.89,29.77,9,1,9,0.00
2013-7-23,73,66,59,62,60,56,92,82,68,29.96,29.88,7,1,8,0.00
2013-7-24,62,62,61,60,59,59,91,91,90,29.97,29.94,5,0,5,0.00
2013-7-25,67,62,58,60,58,56,92,87,75,29.95,29.92,7,0,7,0.00
2013-7-26,75,64,56,62,58,54,95,81,59,30.03,29.93,8,1,9,0.00
2013-7-27,74,64,59,62,59,57,92,82,64,30.10,29.99,9,1,9,0.00
2013-7-28,74,66,60,62,59,57,92,79,64,30.00,29.86,11,2,11,0.00
2013-7-30,75,71,64,60,58,57,76,65,58,29.95,29.92,9,2,9,0.00
2013-7-31,70,66,59,58,57,54,84,73,66,30.09,30.02,7,2,7,0.00
2013-8-11,71,63,60,61,58,56,91,84,69,30.03,29.99,9,1,9,0.00
2013-8-12,70,63,58,60,58,56,93,84,69,30.03,29.95,8,1,11,0.00
2013-8-13,74,60,56,61,57,55,94,89,62,29.99,29.93,5,0,5,0.00
2013-8-14,83,67,57,63,58,53,94,74,44,29.99,29.90,9,1,9,0.00
2013-8-15,81,68,54,63,58,52,94,72,46,29.99,29.91,16,1,16,0.00
2013-8-16,80,72,63,68,65,60,96,81,65,29.97,29.90,10,1,10,0.00
2013-8-17,66,65,64,64,64,63,97,96,93,29.98,29.94,0,0,0,0.00
2013-8-18,79,68,58,65,60,57,95,78,55,30.00,29.86,9,1,9,0.00
2013-8-19,88,71,58,67,62,57,96,76,44,29.89,29.76,9,1,9,0.00
2013-8-20,83,70,61,65,62,59,93,78,52,29.90,29.78,8,1,8,0.00
2013-8-21,78,66,60,63,59,57,93,79,57,29.89,29.80,11,1,11,0.00
2013-8-22,62,61,61,58,58,58,89,88,88,29.88,29.87,1,0,1,0.00
2013-8-23,72,64,57,60,57,54,90,76,64,29.98,29.86,11,1,11,0.00
2013-8-24,73,64,59,61,57,54,84,78,66,29.94,29.85,9,1,9,0.00
2013-8-31,86,73,60,67,63,58,94,72,42,30.04,29.91,9,1,9,0.00
2013-9-1,78,67,57,65,60,56,96,79,59,29.98,29.89,10,1,10,0.00
2013-9-2,79,70,60,63,60,57,92,72,50,29.95,29.86,11,1,11,0.00
2013-9-3,80,73,65,66,64,62,90,72,60,29.96,29.87,10,2,10,0.00
2013-9-4,80,69,58,60,57,52,94,68,42,30.01,29.93,11,2,11,0.00
2013-9-5,77,63,56,59,57,53,92,80,52,30.00,29.95,12,1,12,0.00
2013-9-6,79,66,55,61,56,51,95,72,41,30.02,29.95,14,2,14,0.00
2013-9-7,90,70,52,59,55,50,94,64,29,29.98,29.80,10,0,10,0.00
2013-9-8,93,72,57,64,56,50,83,61,24,29.86,29.81,7,0,7,0.00
2013-9-9,84,70,60,64,60,57,92,74,47,29.87,29.75,8,1,8,0.00
2013-9-10,84,71,58,66,61,56,94,74,48,29.81,29.70,8,1,8,0.00
2013-9-18,64,58,53,54,53,50,91,82,69,29.88,29.85,3,0,3,0.00
2013-9-19,84,66,51,56,52,45,94,66,27,29.91,29.81,10,1,10,0.00
2013-9-20,87,62,51,59,52,46,94,75,25,29.85,29.73,9,0,9,0.00
2013-9-21,76,60,51,62,54,49,94,83,61,29.87,29.79,15,1,15,0.00
2013-9-22,66,59,52,61,56,51,97,88,74,29.92,29.81,12,1,12,0.43
2013-9-23,74,61,50,58,53,49,98,78,49,30.01,29.91,15,1,15,0.00
2013-9-24,81,66,51,62,56,50,96,72,44,30.02,29.91,13,1,13,0.00
2013-9-25,75,64,56,57,53,49,94,69,44,30.00,29.91,18,3,18,0.00
2013-9-26,69,62,54,51,48,45,84,61,46,29.95,29.84,22,4,22,0.00
2013-9-27,75,60,46,47,43,37,91,59,27,30.01,29.85,13,2,13,0.00
2013-9-28,78,63,45,48,43,38,90,53,24,30.10,30.01,8,1,8,0.00
2013-9-29,82,66,46,55,47,42,86,55,27,30.08,29.98,10,1,10,0.00
2013-9-30,76,64,51,61,56,50,96,76,57,30.11,30.03,7,1,13,0.00
2013-10-1,76,70,60,64,62,58,93,74,63,30.08,29.96,12,2,12,0.00
2013-10-2,72,61,49,55,51,46,90,71,47,30.02,29.92,9,1,9,0.00
2013-10-3,74,57,48,55,46,42,92,68,40,30.03,29.93,12,1,12,0.00
2013-10-4,73,62,47,48,40,32,84,49,27,30.08,29.94,18,2,18,0.00
2013-10-5,80,70,56,42,36,32,49,30,19,30.08,29.98,12,2,12,0.00
2013-10-6,85,67,47,45,39,31,75,42,15,30.19,30.08,6,0,6,0.00
2013-10-7,84,66,46,51,43,37,80,48,20,30.11,29.99,8,0,8,0.00
2013-10-8,81,64,50,53,45,34,85,55,19,29.98,29.86,11,1,11,0.00
2013-10-9,75,61,47,56,48,44,93,65,38,29.91,29.73,11,1,11,0.00
2013-10-10,67,56,48,48,45,43,83,68,46,29.79,29.67,9,0,9,0.00
2013-10-11,71,57,46,53,48,42,93,74,49,30.02,29.79,9,1,9,0.00
2013-10-12,66,54,45,55,49,44,95,85,68,30.09,29.98,9,1,9,0.00
2013-10-13,70,56,45,56,49,42,96,78,43,30.02,29.91,9,1,9,0.00
2013-10-14,73,58,44,53,47,42,95,71,38,30.07,29.93,10,1,10,0.00
2013-10-15,78,61,43,50,43,40,93,57,27,30.12,29.98,10,1,10,0.00
2013-10-16,80,61,44,46,40,36,86,52,22,30.04,29.93,7,0,7,0.00
2013-10-17,82,62,45,48,42,36,83,53,22,30.08,30.01,9,0,9,0.00
2013-10-18,81,61,45,52,43,34,86,58,20,30.08,29.95,7,0,7,0.00
2013-10-19,76,61,45,56,49,39,88,68,41,30.06,29.97,6,1,6,0.00
2013-10-20,78,70,54,59,54,48,89,61,37,30.08,29.98,6,1,6,0.00
2013-10-21,67,54,49,54,50,47,94,86,59,29.97,29.91,6,0,6,0.00
2013-10-22,67,58,52,56,52,50,94,83,67,30.01,29.91,7,1,7,0.00
2013-10-23,67,58,50,58,53,48,96,84,68,30.02,29.92,6,1,6,0.00
2013-10-24,63,55,51,56,52,50,97,90,77,29.99,29.90,7,0,7,0.00
2013-10-25,59,52,44,52,49,43,97,89,76,30.14,29.98,6,0,6,0.00
2013-10-26,57,46,42,52,45,41,98,96,83,30.18,30.13,5,0,5,0.00
2013-10-29,57,54,53,51,48,48,82,80,77,30.17,29.72,9,2,9,0.00
2013-10-30,59,49,43,48,45,41,94,86,67,30.07,29.98,6,0,6,0.00
2013-10-31,67,52,41,52,46,40,97,80,50,30.16,30.07,9,0,9,0.00
2013-11-1,73,56,41,51,46,39,96,73,40,30.18,30.06,7,0,7,0.00
2013-11-2,76,56,42,50,46,41,95,71,34,30.14,30.01,5,0,5,0.00
2013-11-3,68,54,43,55,48,40,94,82,62,30.03,29.92,10,1,10,0.00
2013-11-4,64,52,42,46,40,30,95,67,29,30.06,29.92,12,1,12,0.00
2013-11-5,67,53,38,45,37,31,93,59,28,30.09,29.92,10,1,10,0.00
2013-11-6,72,56,41,46,39,34,82,57,27,30.22,30.07,5,0,5,0.00
2013-11-7,71,56,42,47,42,36,88,64,31,30.26,30.15,4,0,4,0.00
2013-11-8,72,56,45,52,46,41,93,73,33,30.17,30.07,9,0,9,0.00
2013-11-9,69,54,44,56,48,43,97,82,52,30.10,29.96,6,0,6,0.00
2013-11-10,70,54,42,54,48,41,97,82,52,30.05,29.96,6,0,6,0.00
2013-11-11,63,52,43,53,49,42,96,88,68,30.13,30.03,6,0,6,0.00
2013-11-12,65,57,51,54,52,49,94,84,61,30.19,30.08,6,0,6,0.00
2013-11-13,71,58,47,55,52,44,91,80,47,30.26,30.18,8,0,8,0.00
2013-11-14,74,56,44,58,50,43,97,84,48,30.25,30.11,6,0,6,0.00
2013-11-15,57,54,53,54,52,51,97,94,88,30.11,30.06,4,0,4,0.00
2013-11-16,58,48,42,45,43,40,94,85,58,29.82,29.74,4,0,4,0.00
2013-11-17,63,50,40,50,45,39,96,83,59,29.95,29.79,13,1,13,0.00
2013-11-18,61,50,41,50,45,40,97,86,66,30.10,29.95,8,0,8,0.01
2013-11-19,59,50,41,51,46,40,97,86,69,30.15,30.08,10,1,10,0.00
2013-11-20,64,56,48,56,52,46,98,88,67,30.10,29.92,9,1,9,0.32
2013-11-21,63,55,50,60,54,50,99,97,86,29.93,29.85,9,0,9,0.43
2013-11-22,61,53,44,50,40,30,98,66,35,30.00,29.90,11,1,11,0.01
2013-11-23,69,52,38,38,32,19,83,52,18,30.04,29.90,6,0,6,0.00
2013-11-24,64,50,38,44,39,33,93,71,31,30.12,29.99,4,0,4,0.00
2013-11-25,63,48,37,46,41,36,97,79,45,30.27,30.12,4,0,4,0.00
2013-11-26,64,48,36,48,42,35,97,81,46,30.33,30.25,5,0,5,0.00
2013-11-27,63,50,40,50,44,39,96,82,55,30.25,30.01,6,0,6,0.00
2013-11-28,65,51,40,50,45,38,97,82,54,30.02,29.84,6,0,6,0.00
2013-11-29,69,53,43,50,46,40,96,80,45,30.09,29.87,5,0,5,0.00
2013-11-30,68,51,40,49,44,38,95,78,45,30.22,30.09,5,0,5,0.00
2013-12-1,66,50,39,52,45,38,96,83,47,30.27,30.18,4,0,6,0.00
2013-12-2,67,51,39,52,45,38,96,81,52,30.34,30.21,6,0,6,0.00
2013-12-3,61,50,39,53,47,38,97,90,73,30.21,29.94,10,0,10,0.00
2013-12-4,55,48,36,52,40,31,95,73,51,29.97,29.86,19,2,19,0.00
2013-12-5,50,40,29,33,28,21,88,68,34,30.10,29.97,6,0,6,0.00
2013-12-6,50,37,26,28,24,16,88,63,27,30.17,30.09,5,0,5,0.00
2013-12-7,55,45,32,48,37,27,94,76,49,30.19,29.92,14,1,14,0.11
2013-12-8,50,42,31,44,32,26,92,70,41,30.24,29.95,17,2,17,0.09
2013-12-9,46,36,28,32,26,23,94,68,47,30.33,30.22,11,1,11,0.00
2013-12-10,51,36,27,30,24,19,87,63,32,30.41,30.32,9,0,9,0.00
2013-12-11,52,38,27,33,29,24,90,73,44,30.39,30.20,5,0,5,0.00
2013-12-12,57,41,29,35,31,27,93,72,38,30.25,30.17,5,0,5,0.00
2013-12-13,59,41,28,41,33,27,94,76,37,30.27,30.16,6,0,6,0.00
2013-12-14,59,43,31,44,36,30,95,80,47,30.34,30.24,5,0,5,0.00
2013-12-15,61,44,32,42,36,30,95,76,44,30.39,30.30,3,0,5,0.00
2013-12-16,61,44,31,43,37,30,95,78,48,30.35,30.22,4,0,4,0.00
2013-12-17,66,48,36,42,38,33,92,72,36,30.22,30.11,5,0,5,0.00
2013-12-18,62,48,37,44,40,35,93,77,47,30.17,30.01,5,0,5,0.00
2013-12-19,58,48,40,49,44,38,97,86,64,30.01,29.78,5,1,8,0.00
2013-12-20,59,48,39,45,38,27,94,67,43,29.95,29.74,24,1,24,0.00
2013-12-21,61,45,31,32,25,10,83,53,15,30.02,29.94,7,0,7,0.00
2013-12-22,61,46,34,50,40,30,96,81,63,30.10,29.98,9,0,9,0.00
2013-12-23,68,49,36,48,40,35,98,74,34,30.30,30.10,7,0,7,0.00
2013-12-24,62,46,36,47,40,34,95,82,49,30.39,30.30,6,0,6,0.00
2013-12-25,70,49,36,48,40,35,95,75,39,30.34,30.20,5,0,5,0.00
2013-12-26,66,47,34,45,39,33,95,76,45,30.29,30.19,5,0,5,0.00
2013-12-27,69,47,34,48,40,32,95,78,40,30.26,30.15,5,0,5,0.00
2013-12-28,59,45,34,46,40,32,95,83,56,30.23,30.11,4,0,4,0.00
2013-12-29,67,46,32,43,35,32,97,70,30,30.15,30.02,6,0,6,0.00
2013-12-30,68,48,36,36,31,22,83,56,20,30.19,30.08,6,0,6,0.00
2013-12-31,63,45,32,40,35,29,90,72,36,30.26,30.17,6,0,6,0.00
2014-1-1,60,44,36,47,39,33,96,83,55,30.27,30.15,5,0,5,0.00
2014-1-2,61,45,32,47,39,31,96,83,56,30.22,30.12,5,0,5,0.00